Time;durP1;ratioP1;P1;durP2;ratioP2;P2;SDS_P1;SDS_P2;PMS_P1;PMS_P2;Temp;Humidity;BMP_temperature;BMP_pressure;BME280_temperature;BME280_humidity;BME280_pressure;Samples;Min_cycle;Max_cycle;Signal;HPM_P1;HPM_P2
2024/02/19 00:00:00;;;;;;;15.23;6.10;;;;;;;;;;4989366;28;20253;-69
2024/02/19 00:02:25;;;;;;;21.67;7.00;;;;;;;;;;4989888;28;20267;-69
2024/02/19 00:04:51;;;;;;;28.53;9.40;;;;;;;;;;4984363;28;20928;-68
2024/02/19 00:07:17;;;;;;;24.40;8.20;;;;;;;;;;4989284;28;20336;-69
2024/02/19 00:09:42;;;;;;;19.80;6.57;;;;;;;;;;4984344;28;20365;-68
2024/02/19 00:12:08;;;;;;;19.10;6.85;;;;;;;;;;4984293;28;20027;-68
2024/02/19 00:14:33;;;;;;;25.60;7.43;;;;;;;;;;4984116;28;20262;-68
2024/02/19 00:16:58;;;;;;;20.47;8.03;;;;;;;;;;4987220;28;20058;-68
2024/02/19 00:19:23;;;;;;;18.23;7.67;;;;;;;;;;4989151;28;20253;-69
2024/02/19 00:21:48;;;;;;;29.60;9.77;;;;;;;;;;4988839;28;20274;-68
2024/02/19 00:24:13;;;;;;;20.27;8.33;;;;;;;;;;4987093;28;21374;-68
2024/02/19 00:26:39;;;;;;;28.48;8.07;;;;;;;;;;4985323;28;20285;-68
2024/02/19 00:29:04;;;;;;;19.10;8.10;;;;;;;;;;4987502;28;20668;-69
2024/02/19 00:31:30;;;;;;;26.33;7.95;;;;;;;;;;4986436;28;20305;-68
2024/02/19 00:33:55;;;;;;;22.67;7.55;;;;;;;;;;4988420;28;20560;-68
2024/02/19 00:36:20;;;;;;;15.70;6.80;;;;;;;;;;4988251;28;20091;-68
2024/02/19 00:38:45;;;;;;;20.55;6.95;;;;;;;;;;4987008;28;20293;-68
2024/02/19 00:41:11;;;;;;;14.50;6.72;;;;;;;;;;4987969;28;20473;-68
2024/02/19 00:43:36;;;;;;;22.48;7.35;;;;;;;;;;4992219;28;20034;-68
2024/02/19 00:46:02;;;;;;;29.30;9.40;;;;;;;;;;4992114;28;20156;-68
2024/02/19 00:48:27;;;;;;;22.10;8.95;;;;;;;;;;4991937;28;20038;-69
2024/02/19 00:50:52;;;;;;;24.70;8.20;;;;;;;;;;4991514;28;20029;-68
2024/02/19 00:53:17;;;;;;;28.67;8.97;;;;;;;;;;4987557;28;20316;-68
2024/02/19 00:55:42;;;;;;;16.88;7.45;;;;;;;;;;4990971;28;20628;-68
2024/02/19 00:58:08;;;;;;;15.32;6.35;;;;;;;;;;4990686;28;20154;-69
2024/02/19 01:00:33;;;;;;;22.98;6.97;;;;;;;;;;4992029;28;20034;-68
2024/02/19 01:02:58;;;;;;;16.80;6.13;;;;;;;;;;4990145;28;20030;-68
2024/02/19 01:05:25;;;;;;;21.10;8.00;;;;;;;;;;4989342;28;20033;-68
2024/02/19 01:07:50;;;;;;;22.52;7.10;;;;;;;;;;4989059;28;20105;-68
2024/02/19 01:10:15;;;;;;;31.10;7.20;;;;;;;;;;4990563;28;20149;-69
2024/02/19 01:12:40;;;;;;;22.42;5.97;;;;;;;;;;4987504;28;20785;-69
2024/02/19 01:15:05;;;;;;;27.10;7.63;;;;;;;;;;4990180;28;20034;-68
2024/02/19 01:17:31;;;;;;;30.45;6.25;;;;;;;;;;4991434;28;20312;-69
2024/02/19 01:19:57;;;;;;;20.88;7.60;;;;;;;;;;4990378;28;20344;-68
2024/02/19 01:22:22;;;;;;;34.88;7.30;;;;;;;;;;4991423;28;20026;-68
2024/02/19 01:24:48;;;;;;;31.00;6.20;;;;;;;;;;4990767;28;20026;-69
2024/02/19 01:27:13;;;;;;;21.85;7.03;;;;;;;;;;4990425;28;20779;-68
2024/02/19 01:29:38;;;;;;;27.92;7.30;;;;;;;;;;4986986;28;20022;-68
2024/02/19 01:32:04;;;;;;;21.02;5.68;;;;;;;;;;4990490;28;20571;-69
2024/02/19 01:34:29;;;;;;;24.35;4.90;;;;;;;;;;4991232;28;20290;-68
2024/02/19 01:36:57;;;;;;;32.53;6.00;;;;;;;;;;4990969;28;20018;-68
2024/02/19 01:39:22;;;;;;;22.08;5.22;;;;;;;;;;4988954;28;20084;-68
2024/02/19 01:41:47;;;;;;;21.40;4.17;;;;;;;;;;4988306;28;20022;-68
2024/02/19 01:44:12;;;;;;;24.27;5.30;;;;;;;;;;4988556;28;20289;-68
2024/02/19 01:46:38;;;;;;;28.57;3.53;;;;;;;;;;4987418;28;20297;-69
2024/02/19 01:49:03;;;;;;;21.65;4.00;;;;;;;;;;4989832;28;20272;-68
2024/02/19 01:51:29;;;;;;;20.77;4.28;;;;;;;;;;4989669;28;20031;-68
2024/02/19 01:53:54;;;;;;;25.80;4.38;;;;;;;;;;4988795;28;20428;-68
2024/02/19 01:56:20;;;;;;;22.38;4.15;;;;;;;;;;4986979;28;20049;-68
2024/02/19 01:58:45;;;;;;;33.25;5.00;;;;;;;;;;4990540;28;20053;-68
2024/02/19 02:01:11;;;;;;;19.42;4.25;;;;;;;;;;4990073;28;20397;-68
2024/02/19 02:03:37;;;;;;;30.48;4.28;;;;;;;;;;4989696;28;20081;-68
2024/02/19 02:06:02;;;;;;;22.45;4.13;;;;;;;;;;4990458;28;20026;-68
2024/02/19 02:08:28;;;;;;;17.37;3.50;;;;;;;;;;4991056;28;20037;-68
2024/02/19 02:10:53;;;;;;;23.33;3.67;;;;;;;;;;4990477;28;20776;-68
2024/02/19 02:13:21;;;;;;;20.98;4.07;;;;;;;;;;4990612;28;20088;-68
2024/02/19 02:15:46;;;;;;;15.95;3.63;;;;;;;;;;4989317;28;20022;-68
2024/02/19 02:18:12;;;;;;;34.83;4.45;;;;;;;;;;4989022;28;20073;-68
2024/02/19 02:20:39;;;;;;;25.08;4.55;;;;;;;;;;4990101;28;20101;-68
2024/02/19 02:23:04;;;;;;;21.63;4.22;;;;;;;;;;4990694;28;20026;-68
2024/02/19 02:25:30;;;;;;;21.17;4.28;;;;;;;;;;4989883;28;20081;-68
2024/02/19 02:27:55;;;;;;;24.75;3.35;;;;;;;;;;4990960;28;20322;-68
2024/02/19 02:30:20;;;;;;;22.17;4.20;;;;;;;;;;4989815;28;20031;-68
2024/02/19 02:32:45;;;;;;;25.30;4.95;;;;;;;;;;4982293;28;20250;-68
2024/02/19 02:35:10;;;;;;;18.30;3.13;;;;;;;;;;4984934;28;20392;-68
2024/02/19 02:37:36;;;;;;;24.15;3.85;;;;;;;;;;4989503;28;20477;-68
2024/02/19 02:40:01;;;;;;;30.57;3.70;;;;;;;;;;4989908;28;20018;-68
2024/02/19 02:42:26;;;;;;;26.30;4.37;;;;;;;;;;4990376;28;20348;-68
2024/02/19 02:44:51;;;;;;;21.77;3.87;;;;;;;;;;4989271;28;20745;-68
2024/02/19 02:47:16;;;;;;;25.77;3.73;;;;;;;;;;4985459;28;20257;-68
2024/02/19 02:49:41;;;;;;;21.27;4.13;;;;;;;;;;4989887;28;20278;-68
2024/02/19 02:52:07;;;;;;;20.00;3.70;;;;;;;;;;4985725;28;20810;-68
2024/02/19 02:54:32;;;;;;;30.20;4.70;;;;;;;;;;4990072;28;20254;-68
2024/02/19 02:56:58;;;;;;;24.55;4.60;;;;;;;;;;4989675;28;20260;-68
2024/02/19 02:59:23;;;;;;;25.92;3.85;;;;;;;;;;4989638;28;20021;-68
2024/02/19 03:01:49;;;;;;;21.87;3.67;;;;;;;;;;4983356;28;20026;-68
2024/02/19 03:04:15;;;;;;;29.60;4.00;;;;;;;;;;4981500;28;20258;-68
2024/02/19 03:06:41;;;;;;;23.13;2.60;;;;;;;;;;4988095;28;20076;-68
2024/02/19 03:09:06;;;;;;;23.83;3.40;;;;;;;;;;4989626;28;20683;-68
2024/02/19 03:11:31;;;;;;;26.33;3.10;;;;;;;;;;4989554;28;20335;-68
2024/02/19 03:13:56;;;;;;;22.83;3.57;;;;;;;;;;4991591;28;20771;-68
2024/02/19 03:16:21;;;;;;;14.73;3.17;;;;;;;;;;4979232;28;20308;-68
2024/02/19 03:18:47;;;;;;;27.67;3.07;;;;;;;;;;4989938;28;20137;-68
2024/02/19 03:21:15;;;;;;;15.10;2.22;;;;;;;;;;4989829;28;20613;-68
2024/02/19 03:23:47;;;;;;;23.42;2.65;;;;;;;;;;4990045;28;20387;-68
2024/02/19 03:26:12;;;;;;;20.67;3.03;;;;;;;;;;4988661;28;20103;-68
2024/02/19 03:28:37;;;;;;;14.50;2.17;;;;;;;;;;4989993;28;20547;-68
2024/02/19 03:31:02;;;;;;;22.17;2.70;;;;;;;;;;4985963;28;20281;-68
2024/02/19 03:33:27;;;;;;;25.23;3.67;;;;;;;;;;4981738;28;20262;-68
2024/02/19 03:35:53;;;;;;;15.73;2.40;;;;;;;;;;4989579;28;20264;-68
2024/02/19 03:38:18;;;;;;;18.00;3.60;;;;;;;;;;4988788;28;20814;-68
2024/02/19 03:40:43;;;;;;;15.20;2.70;;;;;;;;;;4989740;28;20026;-68
2024/02/19 03:43:09;;;;;;;18.33;3.08;;;;;;;;;;4987990;28;20084;-68
2024/02/19 03:45:35;;;;;;;29.00;2.88;;;;;;;;;;4988285;28;20045;-68
2024/02/19 03:48:00;;;;;;;24.33;2.87;;;;;;;;;;4986494;28;20478;-68
2024/02/19 03:50:25;;;;;;;25.13;3.20;;;;;;;;;;4982139;28;20332;-68
2024/02/19 03:52:50;;;;;;;16.60;2.20;;;;;;;;;;4985016;28;20260;-68
2024/02/19 03:55:16;;;;;;;20.00;2.67;;;;;;;;;;4985069;28;20052;-68
2024/02/19 03:57:41;;;;;;;19.13;2.05;;;;;;;;;;4986375;28;20023;-68
2024/02/19 04:00:07;;;;;;;20.45;3.35;;;;;;;;;;4989483;28;20017;-68
2024/02/19 04:02:32;;;;;;;21.55;3.00;;;;;;;;;;4987373;28;20076;-68
2024/02/19 04:04:57;;;;;;;20.52;3.10;;;;;;;;;;4974678;28;20019;-68
2024/02/19 04:07:24;;;;;;;23.37;2.60;;;;;;;;;;4988898;28;20026;-68
2024/02/19 04:09:49;;;;;;;20.30;3.75;;;;;;;;;;4989077;28;20755;-68
2024/02/19 04:12:14;;;;;;;24.20;3.40;;;;;;;;;;4988946;28;20134;-68
2024/02/19 04:14:40;;;;;;;20.10;2.90;;;;;;;;;;4991541;28;20262;-69
2024/02/19 04:17:05;;;;;;;14.63;2.65;;;;;;;;;;4992667;28;20715;-68
2024/02/19 04:19:31;;;;;;;19.92;3.15;;;;;;;;;;4990190;28;20022;-68
2024/02/19 04:21:56;;;;;;;15.73;2.87;;;;;;;;;;4986959;28;20101;-68
2024/02/19 04:24:21;;;;;;;18.67;2.83;;;;;;;;;;4983501;28;20277;-68
2024/02/19 04:26:46;;;;;;;8.07;1.60;;;;;;;;;;4988025;28;20042;-68
2024/02/19 04:29:11;;;;;;;15.23;2.13;;;;;;;;;;4990955;28;20030;-68
2024/02/19 04:31:37;;;;;;;16.98;2.85;;;;;;;;;;4992994;28;20289;-68
2024/02/19 04:34:02;;;;;;;14.48;2.08;;;;;;;;;;4991881;28;20022;-68
2024/02/19 04:36:27;;;;;;;20.45;3.42;;;;;;;;;;4986875;28;20110;-68
2024/02/19 04:38:52;;;;;;;12.67;2.43;;;;;;;;;;4992681;28;20378;-68
2024/02/19 04:41:18;;;;;;;19.00;3.03;;;;;;;;;;4992077;28;20360;-68
2024/02/19 04:43:43;;;;;;;21.02;2.30;;;;;;;;;;4991673;28;20585;-68
2024/02/19 04:46:08;;;;;;;16.20;2.93;;;;;;;;;;4992039;28;20476;-68
2024/02/19 04:48:34;;;;;;;17.77;2.20;;;;;;;;;;4991742;28;20340;-68
2024/02/19 04:50:59;;;;;;;21.20;4.13;;;;;;;;;;4986171;28;20294;-68
2024/02/19 04:53:24;;;;;;;18.03;2.70;;;;;;;;;;4983608;28;20014;-68
2024/02/19 04:55:49;;;;;;;13.13;2.67;;;;;;;;;;4989850;28;20344;-68
2024/02/19 04:58:16;;;;;;;26.43;3.37;;;;;;;;;;4991382;28;20481;-68
2024/02/19 05:00:41;;;;;;;37.88;3.38;;;;;;;;;;4991482;28;20312;-68
2024/02/19 05:03:07;;;;;;;19.65;4.88;;;;;;;;;;4992480;28;20023;-68
2024/02/19 05:05:32;;;;;;;16.98;3.50;;;;;;;;;;4992373;28;20022;-68
2024/02/19 05:07:57;;;;;;;18.52;3.22;;;;;;;;;;4982326;28;20553;-68
2024/02/19 05:10:23;;;;;;;24.40;4.47;;;;;;;;;;4990941;28;20027;-68
2024/02/19 05:12:48;;;;;;;32.80;3.20;;;;;;;;;;4992321;28;20607;-68
2024/02/19 05:15:13;;;;;;;26.17;4.35;;;;;;;;;;4990679;28;20250;-68
2024/02/19 05:17:38;;;;;;;22.17;3.42;;;;;;;;;;4990060;28;20014;-68
2024/02/19 05:20:07;;;;;;;24.87;4.67;;;;;;;;;;4992272;28;20560;-68
2024/02/19 05:22:33;;;;;;;30.25;4.80;;;;;;;;;;4991143;28;20652;-68
2024/02/19 05:24:58;;;;;;;19.42;3.60;;;;;;;;;;4988517;28;20010;-68
2024/02/19 05:27:25;;;;;;;14.40;3.57;;;;;;;;;;4988313;28;20018;-68
2024/02/19 05:29:50;;;;;;;29.48;3.78;;;;;;;;;;4991656;28;20264;-68
2024/02/19 05:32:15;;;;;;;21.38;4.07;;;;;;;;;;4990947;28;20329;-68
2024/02/19 05:34:41;;;;;;;23.17;3.27;;;;;;;;;;4991203;28;20148;-68
2024/02/19 05:37:06;;;;;;;26.35;3.50;;;;;;;;;;4991263;28;20302;-68
2024/02/19 05:39:31;;;;;;;31.00;3.70;;;;;;;;;;4989061;28;20026;-68
2024/02/19 05:41:56;;;;;;;27.27;3.97;;;;;;;;;;4986673;28;20403;-68
2024/02/19 05:44:21;;;;;;;13.88;2.88;;;;;;;;;;4990687;28;20510;-68
2024/02/19 05:46:47;;;;;;;24.38;3.42;;;;;;;;;;4990192;28;20038;-68
2024/02/19 05:49:12;;;;;;;19.92;2.95;;;;;;;;;;4989931;28;20035;-68
2024/02/19 05:51:37;;;;;;;14.52;2.70;;;;;;;;;;4990750;28;20030;-68
2024/02/19 05:54:03;;;;;;;18.13;3.10;;;;;;;;;;4989920;28;20041;-68
2024/02/19 05:56:29;;;;;;;20.52;3.28;;;;;;;;;;4988216;28;20284;-68
2024/02/19 05:58:54;;;;;;;16.75;3.67;;;;;;;;;;4986423;28;20045;-68
2024/02/19 06:01:19;;;;;;;19.42;2.80;;;;;;;;;;4990864;28;20022;-68
2024/02/19 06:03:44;;;;;;;32.53;3.50;;;;;;;;;;4989537;28;20046;-68
2024/02/19 06:06:10;;;;;;;15.90;3.47;;;;;;;;;;4991235;28;20047;-68
2024/02/19 06:08:35;;;;;;;20.65;2.88;;;;;;;;;;4990751;28;20018;-68
2024/02/19 06:11:02;;;;;;;14.30;2.43;;;;;;;;;;4987299;28;20029;-68
2024/02/19 06:13:28;;;;;;;18.50;3.22;;;;;;;;;;4984401;28;20281;-68
2024/02/19 06:15:53;;;;;;;25.00;2.70;;;;;;;;;;4984013;28;20377;-68
2024/02/19 06:18:18;;;;;;;22.67;3.45;;;;;;;;;;4990342;28;20072;-68
2024/02/19 06:20:44;;;;;;;28.63;4.35;;;;;;;;;;4987592;28;20026;-68
2024/02/19 06:23:09;;;;;;;21.53;4.13;;;;;;;;;;4988624;28;20026;-68
2024/02/19 06:25:34;;;;;;;14.23;3.43;;;;;;;;;;4987915;28;20262;-68
2024/02/19 06:28:02;;;;;;;20.77;2.50;;;;;;;;;;4986610;28;20280;-68
2024/02/19 06:30:27;;;;;;;16.95;2.25;;;;;;;;;;4984156;28;20036;-68
2024/02/19 06:32:52;;;;;;;16.90;2.70;;;;;;;;;;4988326;28;20026;-68
2024/02/19 06:35:17;;;;;;;15.13;3.13;;;;;;;;;;4986741;28;20277;-68
2024/02/19 06:37:43;;;;;;;14.52;3.13;;;;;;;;;;4987562;28;20073;-68
2024/02/19 06:40:08;;;;;;;17.23;2.42;;;;;;;;;;4987631;28;20034;-68
2024/02/19 06:42:33;;;;;;;15.25;2.10;;;;;;;;;;4986779;28;20439;-68
2024/02/19 06:44:59;;;;;;;16.00;2.43;;;;;;;;;;4985804;28;20146;-69
2024/02/19 06:47:24;;;;;;;20.92;3.03;;;;;;;;;;4985517;28;20766;-68
2024/02/19 06:49:49;;;;;;;20.17;2.67;;;;;;;;;;4985885;28;20101;-68
2024/02/19 06:52:14;;;;;;;16.67;3.83;;;;;;;;;;4989667;28;20042;-68
2024/02/19 06:54:39;;;;;;;18.43;2.70;;;;;;;;;;4989651;28;20684;-68
2024/02/19 06:57:04;;;;;;;23.47;2.57;;;;;;;;;;4988408;28;20356;-68
2024/02/19 06:59:32;;;;;;;16.40;2.92;;;;;;;;;;4988908;28;20280;-68
2024/02/19 07:01:58;;;;;;;15.50;2.55;;;;;;;;;;4985697;28;20014;-68
2024/02/19 07:04:23;;;;;;;9.55;2.08;;;;;;;;;;4987517;28;20045;-67
2024/02/19 07:06:49;;;;;;;14.38;2.88;;;;;;;;;;4985879;28;20023;-67
2024/02/19 07:09:14;;;;;;;18.57;3.27;;;;;;;;;;4986150;28;20049;-68
2024/02/19 07:11:40;;;;;;;17.17;2.55;;;;;;;;;;4988913;28;20323;-67
2024/02/19 07:14:05;;;;;;;16.20;2.25;;;;;;;;;;4988846;28;20389;-67
2024/02/19 07:16:30;;;;;;;26.95;3.65;;;;;;;;;;4984355;28;20022;-68
2024/02/19 07:18:55;;;;;;;16.70;3.10;;;;;;;;;;4977051;28;20500;-67
2024/02/19 07:21:20;;;;;;;24.40;4.50;;;;;;;;;;4988006;28;20266;-67
2024/02/19 07:23:46;;;;;;;17.25;2.95;;;;;;;;;;4989744;28;21024;-67
2024/02/19 07:26:11;;;;;;;20.85;3.05;;;;;;;;;;4989245;28;20026;-67
2024/02/19 07:28:36;;;;;;;20.63;2.97;;;;;;;;;;4989798;28;20022;-67
2024/02/19 07:31:01;;;;;;;12.83;2.43;;;;;;;;;;4988588;28;20038;-67
2024/02/19 07:33:30;;;;;;;20.10;2.72;;;;;;;;;;4986545;28;20276;-67
2024/02/19 07:35:55;;;;;;;23.02;6.30;;;;;;;;;;4981353;28;20033;-68
2024/02/19 07:38:20;;;;;;;29.90;3.80;;;;;;;;;;4988433;28;20018;-67
2024/02/19 07:40:45;;;;;;;17.10;2.25;;;;;;;;;;4985916;28;20261;-67
2024/02/19 07:43:12;;;;;;;21.92;3.08;;;;;;;;;;4989181;28;20026;-69
2024/02/19 07:45:37;;;;;;;16.05;3.45;;;;;;;;;;4988402;28;20624;-67
2024/02/19 07:48:06;;;;;;;13.77;3.10;;;;;;;;;;4988479;28;20026;-67
2024/02/19 07:50:32;;;;;;;15.43;2.28;;;;;;;;;;4989145;28;20277;-67
2024/02/19 07:52:57;;;;;;;26.65;3.38;;;;;;;;;;4990702;28;20014;-67
2024/02/19 07:55:23;;;;;;;25.23;3.50;;;;;;;;;;4992720;28;20030;-68
2024/02/19 07:57:48;;;;;;;24.60;3.50;;;;;;;;;;4990999;28;20018;-67
2024/02/19 08:00:13;;;;;;;18.97;3.50;;;;;;;;;;4991896;28;20749;-67
2024/02/19 08:02:39;;;;;;;22.35;3.50;;;;;;;;;;4991661;28;20257;-67
2024/02/19 08:05:04;;;;;;;18.17;3.97;;;;;;;;;;4989067;28;20023;-67
2024/02/19 08:07:29;;;;;;;27.58;4.32;;;;;;;;;;4982516;28;20101;-67
2024/02/19 08:09:54;;;;;;;25.13;4.43;;;;;;;;;;4986620;28;20153;-67
2024/02/19 08:12:20;;;;;;;15.40;2.93;;;;;;;;;;4992383;28;20285;-67
2024/02/19 08:14:45;;;;;;;14.90;3.20;;;;;;;;;;4991355;28;20257;-67
2024/02/19 08:17:10;;;;;;;22.30;3.65;;;;;;;;;;4987313;28;20767;-67
2024/02/19 08:19:36;;;;;;;27.35;4.22;;;;;;;;;;4989403;28;20437;-67
2024/02/19 08:22:01;;;;;;;28.83;4.83;;;;;;;;;;4990759;28;20556;-67
2024/02/19 08:24:27;;;;;;;26.20;3.42;;;;;;;;;;4989114;28;20277;-67
2024/02/19 08:26:52;;;;;;;29.88;4.30;;;;;;;;;;4992983;28;20044;-68
2024/02/19 08:29:17;;;;;;;13.80;3.40;;;;;;;;;;4990248;28;20485;-67
2024/02/19 08:31:43;;;;;;;21.47;4.50;;;;;;;;;;4983972;28;20049;-67
2024/02/19 08:34:08;;;;;;;18.67;4.90;;;;;;;;;;4988792;28;20277;-67
2024/02/19 08:36:34;;;;;;;20.65;4.72;;;;;;;;;;4987834;28;20068;-67
2024/02/19 08:38:59;;;;;;;26.17;5.40;;;;;;;;;;4987104;28;20018;-68
2024/02/19 08:41:24;;;;;;;17.93;3.87;;;;;;;;;;4987138;28;20034;-68
2024/02/19 08:43:49;;;;;;;23.23;3.85;;;;;;;;;;4989322;28;20799;-68
2024/02/19 08:46:15;;;;;;;15.68;3.70;;;;;;;;;;4955059;28;1056505;-68
2024/02/19 08:48:40;;;;;;;20.58;3.60;;;;;;;;;;4991548;28;20219;-68
2024/02/19 08:51:05;;;;;;;14.70;3.92;;;;;;;;;;4989327;28;20404;-67
2024/02/19 08:53:31;;;;;;;13.27;3.92;;;;;;;;;;4990460;28;20042;-68
2024/02/19 08:55:56;;;;;;;23.55;3.88;;;;;;;;;;4988151;28;20023;-68
2024/02/19 08:58:21;;;;;;;18.70;3.77;;;;;;;;;;4992051;28;20504;-68
2024/02/19 09:00:46;;;;;;;17.40;3.38;;;;;;;;;;4991782;28;20343;-68
2024/02/19 09:03:11;;;;;;;21.90;4.27;;;;;;;;;;4992312;28;20030;-68
2024/02/19 09:05:37;;;;;;;15.50;3.47;;;;;;;;;;4989133;28;20667;-68
2024/02/19 09:08:03;;;;;;;21.73;3.40;;;;;;;;;;4985994;28;20496;-67
2024/02/19 09:10:28;;;;;;;14.10;3.40;;;;;;;;;;4989787;28;20060;-68
2024/02/19 09:12:53;;;;;;;19.37;3.27;;;;;;;;;;4991530;28;20490;-68
2024/02/19 09:15:19;;;;;;;15.60;2.70;;;;;;;;;;4991217;28;20265;-67
2024/02/19 09:17:44;;;;;;;18.08;3.45;;;;;;;;;;4991248;28;21066;-68
2024/02/19 09:20:09;;;;;;;21.33;3.63;;;;;;;;;;4987182;28;20317;-68
2024/02/19 09:22:35;;;;;;;17.52;2.92;;;;;;;;;;4987128;28;20293;-68
2024/02/19 09:25:00;;;;;;;17.37;4.03;;;;;;;;;;4985158;28;20053;-67
2024/02/19 09:27:25;;;;;;;16.48;3.83;;;;;;;;;;4987033;28;20344;-67
2024/02/19 09:29:50;;;;;;;26.47;3.30;;;;;;;;;;4987662;28;20392;-67
2024/02/19 09:32:15;;;;;;;23.17;3.97;;;;;;;;;;4991174;28;20384;-67
2024/02/19 09:34:41;;;;;;;25.17;4.70;;;;;;;;;;4990633;28;20030;-67
2024/02/19 09:37:06;;;;;;;19.77;4.22;;;;;;;;;;4988465;28;20278;-68
2024/02/19 09:39:31;;;;;;;18.33;4.30;;;;;;;;;;4991316;28;20026;-68
2024/02/19 09:41:56;;;;;;;28.00;5.25;;;;;;;;;;4991530;28;20957;-68
2024/02/19 09:44:22;;;;;;;36.90;6.53;;;;;;;;;;4991107;28;20037;-68
2024/02/19 09:46:48;;;;;;;30.50;5.43;;;;;;;;;;4991334;28;20285;-68
2024/02/19 09:49:14;;;;;;;24.90;7.28;;;;;;;;;;4990420;28;20352;-67
2024/02/19 09:51:46;;;;;;;29.83;5.53;;;;;;;;;;4989881;28;20118;-68
2024/02/19 09:54:11;;;;;;;32.53;7.65;;;;;;;;;;4988563;28;20030;-67
2024/02/19 09:56:37;;;;;;;36.60;6.50;;;;;;;;;;4990743;28;20076;-68
2024/02/19 09:59:04;;;;;;;22.48;5.15;;;;;;;;;;4989615;28;20729;-68
2024/02/19 10:01:29;;;;;;;22.95;6.45;;;;;;;;;;4991465;28;20158;-68
2024/02/19 10:03:56;;;;;;;35.03;7.10;;;;;;;;;;4989803;28;20510;-67
2024/02/19 10:06:29;;;;;;;28.98;4.93;;;;;;;;;;4986448;28;20783;-67
2024/02/19 10:08:54;;;;;;;24.70;6.10;;;;;;;;;;4989878;28;20019;-67
2024/02/19 10:11:19;;;;;;;31.70;6.77;;;;;;;;;;4989794;28;20027;-68
2024/02/19 10:13:44;;;;;;;24.08;5.80;;;;;;;;;;4989908;28;20034;-67
2024/02/19 10:16:13;;;;;;;23.80;5.30;;;;;;;;;;4989561;28;20026;-68
2024/02/19 10:18:39;;;;;;;23.70;7.95;;;;;;;;;;4989928;28;20282;-68
2024/02/19 10:21:05;;;;;;;18.83;6.22;;;;;;;;;;4988291;28;20026;-67
2024/02/19 10:23:30;;;;;;;33.65;8.00;;;;;;;;;;4990367;28;20037;-67
2024/02/19 10:25:55;;;;;;;28.60;9.15;;;;;;;;;;4989012;28;20405;-68
2024/02/19 10:28:22;;;;;;;26.02;7.45;;;;;;;;;;4985126;28;20547;-68
2024/02/19 10:30:47;;;;;;;23.42;6.88;;;;;;;;;;4987998;28;20034;-68
2024/02/19 10:33:13;;;;;;;27.73;6.95;;;;;;;;;;4990846;28;20377;-68
2024/02/19 10:35:38;;;;;;;28.80;9.43;;;;;;;;;;4990070;28;20671;-67
2024/02/19 10:38:03;;;;;;;27.67;8.57;;;;;;;;;;4990361;28;20038;-68
2024/02/19 10:40:29;;;;;;;39.78;9.30;;;;;;;;;;4989735;28;20018;-67
2024/02/19 10:42:55;;;;;;;25.30;7.57;;;;;;;;;;4994401;28;20055;-67
2024/02/19 10:45:21;;;;;;;23.17;8.00;;;;;;;;;;4982318;28;20033;-67
2024/02/19 10:47:50;;;;;;;31.55;9.90;;;;;;;;;;4989587;28;20018;-67
2024/02/19 10:50:17;;;;;;;31.00;10.93;;;;;;;;;;4987338;28;20030;-68
2024/02/19 10:52:43;;;;;;;41.30;10.25;;;;;;;;;;4989997;28;20027;-68
2024/02/19 10:55:11;;;;;;;37.13;10.10;;;;;;;;;;4990063;28;20010;-68
2024/02/19 10:57:46;;;;;;;32.20;11.43;;;;;;;;;;4990141;28;20620;-68
2024/02/19 11:00:12;;;;;;;36.05;8.48;;;;;;;;;;4989071;28;20073;-67
2024/02/19 11:02:38;;;;;;;36.90;11.02;;;;;;;;;;4988169;28;20026;-67
2024/02/19 11:05:07;;;;;;;38.22;8.15;;;;;;;;;;4988213;28;20623;-68
2024/02/19 11:07:33;;;;;;;23.88;8.25;;;;;;;;;;4989456;28;20061;-67
2024/02/19 11:09:58;;;;;;;24.70;9.32;;;;;;;;;;4989635;28;20472;-68
2024/02/19 11:12:25;;;;;;;28.50;8.32;;;;;;;;;;4987540;28;20022;-67
2024/02/19 11:14:51;;;;;;;34.50;8.55;;;;;;;;;;4989478;28;20389;-67
2024/02/19 11:17:16;;;;;;;35.85;7.47;;;;;;;;;;4983743;28;20022;-67
2024/02/19 11:19:41;;;;;;;25.83;8.32;;;;;;;;;;4987916;28;20048;-67
2024/02/19 11:22:12;;;;;;;27.52;8.55;;;;;;;;;;4986865;28;20030;-67
2024/02/19 11:24:38;;;;;;;27.38;7.68;;;;;;;;;;4987977;28;20022;-67
2024/02/19 11:27:07;;;;;;;35.25;8.68;;;;;;;;;;4986982;28;20081;-67
2024/02/19 11:29:32;;;;;;;34.75;6.75;;;;;;;;;;4984819;28;20026;-68
2024/02/19 11:32:02;;;;;;;24.20;8.07;;;;;;;;;;4985892;28;20034;-68
2024/02/19 11:34:28;;;;;;;33.40;7.28;;;;;;;;;;4985722;28;20021;-67
2024/02/19 11:36:55;;;;;;;28.60;9.50;;;;;;;;;;4981560;28;20026;-67
2024/02/19 11:39:20;;;;;;;40.10;10.80;;;;;;;;;;4986003;28;20456;-67
2024/02/19 11:41:46;;;;;;;31.03;8.70;;;;;;;;;;4989493;28;20051;-68
2024/02/19 11:44:16;;;;;;;30.95;10.05;;;;;;;;;;4985229;28;20798;-68
2024/02/19 11:46:41;;;;;;;;;;;;;;;;;;4986972;28;20354;-67
2024/02/19 11:49:11;;;;;;;27.27;7.20;;;;;;;;;;4984861;28;20300;-67
2024/02/19 11:51:39;;;;;;;;;;;;;;;;;;4987407;28;20404;-67
2024/02/19 11:54:11;;;;;;;23.33;8.60;;;;;;;;;;4988048;28;19995;-67
2024/02/19 11:56:47;;;;;;;29.08;8.43;;;;;;;;;;4988823;28;20074;-68
2024/02/19 11:59:13;;;;;;;31.42;7.15;;;;;;;;;;4985943;28;20054;-68
2024/02/19 12:01:39;;;;;;;26.20;7.20;;;;;;;;;;4987378;28;20455;-67
2024/02/19 12:04:04;;;;;;;28.80;7.80;;;;;;;;;;4988569;28;20038;-67
2024/02/19 12:06:36;;;;;;;35.75;9.48;;;;;;;;;;4988797;28;20026;-67
2024/02/19 12:09:01;;;;;;;24.75;7.88;;;;;;;;;;4988839;28;20026;-67
2024/02/19 12:11:27;;;;;;;19.27;7.20;;;;;;;;;;4989254;28;20092;-68
2024/02/19 12:13:52;;;;;;;20.15;7.43;;;;;;;;;;4986797;28;20027;-67
2024/02/19 12:16:18;;;;;;;18.00;7.97;;;;;;;;;;4987145;28;20026;-67
2024/02/19 12:18:45;;;;;;;28.70;8.55;;;;;;;;;;4988727;28;20253;-67
2024/02/19 12:21:10;;;;;;;31.30;8.25;;;;;;;;;;4987685;28;20049;-68
2024/02/19 12:23:39;;;;;;;30.13;8.63;;;;;;;;;;4989083;28;20481;-67
2024/02/19 12:26:05;;;;;;;19.88;5.68;;;;;;;;;;4985543;28;20260;-67
2024/02/19 12:28:30;;;;;;;13.82;5.68;;;;;;;;;;4988098;28;20050;-67
2024/02/19 12:30:55;;;;;;;27.33;5.47;;;;;;;;;;4986347;28;20054;-67
2024/02/19 12:33:21;;;;;;;13.00;5.57;;;;;;;;;;4983175;28;20296;-68
2024/02/19 12:35:47;;;;;;;27.52;6.45;;;;;;;;;;4990254;28;20025;-67
2024/02/19 12:38:13;;;;;;;21.15;6.88;;;;;;;;;;4990052;28;20019;-67
2024/02/19 12:40:38;;;;;;;22.20;6.82;;;;;;;;;;4991938;28;20032;-68
2024/02/19 12:43:06;;;;;;;28.70;6.95;;;;;;;;;;4991121;28;20081;-68
2024/02/19 12:45:31;;;;;;;29.33;6.85;;;;;;;;;;4989574;28;20034;-68
2024/02/19 12:47:56;;;;;;;24.65;7.13;;;;;;;;;;4990896;28;20019;-67
2024/02/19 12:50:21;;;;;;;25.60;6.97;;;;;;;;;;4990815;28;20034;-67
2024/02/19 12:52:47;;;;;;;24.83;8.27;;;;;;;;;;4989425;28;20356;-67
2024/02/19 12:55:13;;;;;;;24.13;7.60;;;;;;;;;;4990592;28;20041;-68
2024/02/19 12:57:38;;;;;;;23.67;7.68;;;;;;;;;;4990850;28;20041;-68
2024/02/19 13:00:08;;;;;;;25.33;7.53;;;;;;;;;;4991931;28;20038;-68
2024/02/19 13:02:34;;;;;;;29.42;8.02;;;;;;;;;;4991489;28;20022;-69
2024/02/19 13:04:59;;;;;;;38.60;7.60;;;;;;;;;;4988682;28;20500;-69
2024/02/19 13:07:25;;;;;;;21.90;7.15;;;;;;;;;;4991271;28;20285;-69
2024/02/19 13:09:50;;;;;;;28.05;9.43;;;;;;;;;;4989564;28;20435;-68
2024/02/19 13:12:15;;;;;;;34.07;9.80;;;;;;;;;;4989616;28;20155;-68
2024/02/19 13:14:40;;;;;;;21.10;7.60;;;;;;;;;;4986293;28;20660;-69
2024/02/19 13:17:08;;;;;;;26.67;8.00;;;;;;;;;;4990522;28;20261;-69
2024/02/19 13:19:33;;;;;;;25.77;8.13;;;;;;;;;;4989914;28;20250;-69
2024/02/19 13:21:59;;;;;;;21.35;6.68;;;;;;;;;;4991299;28;20072;-68
2024/02/19 13:24:24;;;;;;;27.67;7.13;;;;;;;;;;4977262;28;20266;-68
2024/02/19 13:26:51;;;;;;;15.27;5.68;;;;;;;;;;4983650;28;20035;-68
2024/02/19 13:29:16;;;;;;;30.30;6.25;;;;;;;;;;4986252;28;20049;-69
2024/02/19 13:31:41;;;;;;;25.60;5.27;;;;;;;;;;4987324;28;20072;-68
2024/02/19 13:34:07;;;;;;;21.88;5.15;;;;;;;;;;4987817;28;20262;-69
2024/02/19 13:36:32;;;;;;;21.45;5.95;;;;;;;;;;4985920;28;20022;-68
2024/02/19 13:38:57;;;;;;;20.33;5.50;;;;;;;;;;4983136;28;20404;-68
2024/02/19 13:41:23;;;;;;;21.55;4.68;;;;;;;;;;4991358;28;20300;-69
2024/02/19 13:43:48;;;;;;;18.00;5.10;;;;;;;;;;4984871;28;20033;-69
2024/02/19 13:46:16;;;;;;;16.80;5.28;;;;;;;;;;4985417;28;20035;-69
2024/02/19 13:48:42;;;;;;;27.13;5.47;;;;;;;;;;4991081;28;20109;-69
2024/02/19 13:51:07;;;;;;;19.52;5.90;;;;;;;;;;4990224;28;20109;-69
2024/02/19 13:53:32;;;;;;;22.30;6.75;;;;;;;;;;4979589;28;20381;-69
2024/02/19 13:55:58;;;;;;;25.02;7.25;;;;;;;;;;4984376;28;20124;-69
2024/02/19 13:58:24;;;;;;;28.10;6.65;;;;;;;;;;4989228;28;20022;-69
2024/02/19 14:00:49;;;;;;;26.63;6.10;;;;;;;;;;4986316;28;20022;-69
2024/02/19 14:03:15;;;;;;;26.88;6.78;;;;;;;;;;4990492;28;20429;-69
2024/02/19 14:05:40;;;;;;;18.77;7.18;;;;;;;;;;4990104;28;20019;-69
2024/02/19 14:08:05;;;;;;;27.85;8.52;;;;;;;;;;4977367;28;20053;-69
2024/02/19 14:10:31;;;;;;;28.42;9.02;;;;;;;;;;4990987;28;20018;-69
2024/02/19 14:12:56;;;;;;;27.35;8.07;;;;;;;;;;4989301;28;20022;-69
2024/02/19 14:15:21;;;;;;;27.30;7.50;;;;;;;;;;4989802;28;20042;-69
2024/02/19 14:17:47;;;;;;;16.33;6.78;;;;;;;;;;4990247;28;20022;-69
2024/02/19 14:20:12;;;;;;;24.63;8.50;;;;;;;;;;4987029;28;20022;-69